WEATHER DATA

YESTERDAY
Time Temp. Dewp. Hum. Wind dir Wind speed Wind gust Bar. 1h Prec. 24h Prec.
00:10 2 -5.8 53 10 1.9 4.2 1020.1 0.0000 0.0000
00:20 1.8 -6 53 31 2.5 5.3 1020.1 0.0000 0.0000
00:30 1.7 -6.3 52 19 2.2 3.6 1020.1 0.0000 0.0000
00:40 1.5 -6 54 2 2.2 4.2 1020.2 0.0000 0.0000
00:50 1.7 -6.3 52 343 1.9 3.3 1020.2 0.0000 0.0000
01:00 1.5 -6.2 53 350 2.2 3.6 1020.2 0.0000 0.0000
01:21 1.1 -6.4 54 345 1.9 4.4 1020.2 0.0000 0.0000
01:31 1 -6.9 52 321 2.2 4.2 1020.1 0.0000 0.0000
01:40 1.1 -6.6 53 350 1.9 6.7 1020.2 0.0000 0.0000
01:51 1 -6.2 55 355 2.5 4.4 1020.4 0.0000 0.0000
02:01 0.7 -5.7 59 9 3.1 6.7 1020.4 0.0000 0.0000
02:11 0.6 -5.4 61 354 3.3 6.1 1020.4 0.0000 0.0000
02:21 0.5 -5.4 61 5 2.5 5 1020.4 0.0000 0.0000
02:31 0.8 -6.2 56 0 3.1 5.3 1020.2 0.0000 0.0000
02:41 1.2 -6.7 52 11 2.5 5.3 1020 0.0000 0.0000
02:51 1.6 -6.8 50 18 3.1 5.6 1020 0.0000 0.0000
03:01 2 -7.5 46 23 3.6 7.5 1019.8 0.0000 0.0000
03:12 2.5 -8.1 42 30 4.4 8.9 1019.6 0.0000 0.0000
03:22 3 -8.5 39 12 4.4 7.2 1019.6 0.0000 0.0000
03:31 3.1 -8.5 39 5 2.5 6.4 1019.6 0.0000 0.0000
03:42 3.2 -8.1 40 20 1.4 3.6 1019.5 0.0000 0.0000
03:52 3.4 -11.2 30 1 3.1 6.4 1019.4 0.0000 0.0000
04:02 3.9 -10.8 30 11 3.1 6.4 1019.4 0.0000 0.0000
04:12 4.2 -9.8 32 15 2.5 4.4 1019.4 0.0000 0.0000
04:22 4.2 -10.2 31 27 3.1 5.6 1019.4 0.0000 0.0000
04:32 4.2 -10.5 30 26 3.3 6.1 1019.3 0.0000 0.0000
04:42 4.2 -11.3 28 6 3.6 5.3 1019.2 0.0000 0.0000
04:53 4.3 -10.8 29 21 3.3 5.3 1019.3 0.0000 0.0000
05:03 4.4 -11.2 28 21 3.1 5 1019.2 0.0000 0.0000
05:12 4.5 -11.9 26 24 2.5 5.6 1019.3 0.0000 0.0000
05:22 4.4 -12.4 25 8 2.5 5.3 1019.2 0.0000 0.0000
05:33 4.4 -10.4 30 1 1.4 3.1 1019.2 0.0000 0.0000
05:43 4.2 -11.3 28 14 2.2 4.4 1019.3 0.0000 0.0000
05:53 4.2 -10.9 29 25 2.5 4.4 1019.3 0.0000 0.0000
06:03 4.3 -12.1 26 354 3.1 6.4 1019.2 0.0000 0.0000
06:13 4.4 -12.9 24 358 3.1 5.3 1019.1 0.0000 0.0000
06:23 4.6 -12.7 24 3 3.1 5.3 1019.1 0.0000 0.0000
06:33 4.7 -13.1 23 345 2.5 5.6 1019.1 0.0000 0.0000
06:44 4.3 -11.6 27 354 1.4 3.3 1019.2 0.0000 0.0000
06:53 4.1 -12.2 26 3 1.9 3.1 1019.2 0.0000 0.0000
07:03 3.8 -11.6 28 13 1.9 3.3 1019.2 0.0000 0.0000
07:14 3.8 -11.6 28 17 2.2 6.4 1019.3 0.0000 0.0000
07:24 3.8 -12.5 26 334 2.2 4.2 1019.3 0.0000 0.0000
07:34 3.9 -12 27 21 3.1 5 1019.5 0.0000 0.0000
07:43 3.7 -11.7 28 4 1.9 3.1 1019.6 0.0000 0.0000
07:54 3.4 -11.9 28 345 1.4 3.1 1019.6 0.0000 0.0000
08:04 3.3 -12 28 338 1.4 2.5 1019.8 0.0000 0.0000
08:14 3.5 -11.1 30 348 1.4 2.5 1019.8 0.0000 0.0000
08:24 3.4 -10.1 33 342 1.4 2.5 1019.9 0.0000 0.0000
08:34 3.5 -9.7 34 319 1.4 2.2 1019.9 0.0000 0.0000
08:44 3.5 -8.4 38 322 1.4 3.1 1020 0.0000 0.0000
08:54 3.2 -8.7 38 342 1.4 2.5 1020.1 0.0000 0.0000
09:05 3.2 -7 44 320 1.4 3.1 1020.2 0.0000 0.0000
09:15 3.1 -6.6 46 329 1.9 3.6 1020.2 0.0000 0.0000
09:24 3.1 -6.1 48 334 1.1 2.2 1020.2 0.0000 0.0000
09:35 3.3 -5.9 48 337 1.4 2.5 1020.4 0.0000 0.0000
09:45 3.6 -5.7 48 300 1.1 2.2 1020.4 0.0000 0.0000
09:55 3.9 -5.4 48 294 0.8 1.4 1020.4 0.0000 0.0000
10:05 4.5 -5.9 44 315 0.8 1.4 1020.4 0.0000 0.0000
10:16 5 -5.8 43 323 0.8 1.9 1020.4 0.0000 0.0000
10:25 5.4 -5.7 42 270 0.8 1.4 1020.4 0.0000 0.0000
10:35 6.1 -5.5 41 270 0.8 1.4 1020.4 0.0000 0.0000
10:45 6.7 -6.5 36 270 1.1 2.2 1020.2 0.0000 0.0000
10:56 7.4 -6.6 34 286 1.1 1.9 1020.2 0.0000 0.0000
11:06 7.9 -6.5 33 270 0.8 1.4 1020.4 0.0000 0.0000
11:15 8.5 -7.2 30 270 0.8 2.2 1020.4 0.0000 0.0000
11:26 9 -8.4 26 270 1.1 3.6 1020.2 0.0000 0.0000
11:36 9.4 -10.5 21 305 1.9 5.3 1020.4 0.0000 0.0000
11:46 9.8 -8.3 25 295 1.1 3.6 1020.4 0.0000 0.0000
11:56 10 -8.6 24 290 1.9 3.6 1020.2 0.0000 0.0000
12:06 10.2 -8.9 23 276 2.2 4.4 1020.1 0.0000 0.0000
12:16 10.4 -8.3 24 270 1.4 3.6 1020 0.0000 0.0000
12:26 10.3 -10.4 20 306 2.5 5.6 1020 0.0000 0.0000
12:37 10.3 -9.9 21 270 1.1 3.3 1019.9 0.0000 0.0000
12:47 10.4 -10.3 20 260 1.9 4.4 1019.9 0.0000 0.0000
12:56 10.4 -12.1 17 292 2.2 5 1019.9 0.0000 0.0000
13:06 10.5 -10.8 19 286 1.4 4.4 1019.8 0.0000 0.0000
13:17 10.7 -10.7 19 278 1.9 4.4 1019.6 0.0000 0.0000
13:27 10.8 -11.2 18 292 1.9 4.2 1019.6 0.0000 0.0000
13:37 11.2 -10.3 19 320 1.4 3.6 1019.5 0.0000 0.0000
13:47 11.6 -9.4 20 270 1.1 2.5 1019.5 0.0000 0.0000
13:57 11.7 -11.2 17 315 2.2 5.6 1019.4 0.0000 0.0000
14:07 11.9 -9.2 20 270 1.4 4.2 1019.2 0.0000 0.0000
14:17 12 -11.6 16 280 2.2 5 1019.1 0.0000 0.0000
14:28 12.1 -10.2 18 295 1.9 5.3 1019.1 0.0000 0.0000
14:37 12.2 -11.5 16 282 2.2 4.4 1018.8 0.0000 0.0000
14:47 12.3 -10.1 18 297 1.4 3.3 1018.9 0.0000 0.0000
14:57 12.3 -10.1 18 270 1.9 4.2 1018.8 0.0000 0.0000
15:08 12.2 -10.8 17 299 1.4 4.2 1018.7 0.0000 0.0000
15:18 12.3 -10.7 17 281 1.9 3.6 1018.8 0.0000 0.0000
15:27 12.2 -10.8 17 287 1.9 5.3 1018.7 0.0000 0.0000
15:38 12.1 -10.2 18 290 1.4 3.6 1018.7 0.0000 0.0000
15:48 11.9 -11.7 16 315 2.5 6.1 1018.7 0.0000 0.0000
15:58 11.6 -10.6 18 311 2.2 6.1 1018.6 0.0000 0.0000
16:08 11.2 -11.6 17 326 2.5 5 1018.7 0.0000 0.0000
16:19 10.8 -11.2 18 317 2.2 6.4 1018.6 0.0000 0.0000
16:28 10.9 -11.1 18 333 2.2 3.6 1018.6 0.0000 0.0000
16:38 10.8 -10.6 19 301 2.2 5.3 1018.5 0.0000 0.0000
16:49 10.4 -11.5 18 334 2.2 4.2 1018.4 0.0000 0.0000
16:59 10.3 -11.6 18 324 2.2 4.2 1018.2 0.0000 0.0000
17:09 10 -11.2 19 297 1.9 5 1018.2 0.0000 0.0000
17:18 10 -10.6 20 297 1.1 3.6 1018.2 0.0000 0.0000
17:29 10.2 -8 25 19 0.8 2.5 1018.2 0.0000 0.0000
17:39 10.3 -7.9 25 22 0.8 1.4 1018.2 0.0000 0.0000
17:49 9.1 -8.8 25 270 0.8 1.9 1018.2 0.0000 0.0000
17:59 8 -9.2 26 0.8 1.4 1018.2 0.0000 0.0000
18:09 7.1 -8.7 29 90 0.8 1.4 1018.4 0.0000 0.0000
18:19 6.1 -9.1 30 225 0.8 1.9 1018.5 0.0000 0.0000
18:29 5 -9.2 32 42 0.8 1.9 1018.5 0.0000 0.0000
18:40 4.2 -9.1 34 32 0.8 1.9 1018.6 0.0000 0.0000
18:50 3.5 -9.4 35 90 0.3 1.1 1018.7 0.0000 0.0000
18:59 3 -9.8 35 31 0.8 2.2 1018.7 0.0000 0.0000
19:10 2.5 -9.2 38 30 0.8 1.4 1018.7 0.0000 0.0000
19:20 2.1 -9.3 39 45 0.8 1.4 1018.7 0.0000 0.0000
19:30 1.8 -9.8 38 26 0.8 1.9 1018.6 0.0000 0.0000
19:40 1.8 -10.1 37 30 1.1 2.2 1018.6 0.0000 0.0000
19:50 1.6 -10 38 39 1.1 1.9 1018.7 0.0000 0.0000
20:00 1.6 -9.7 39 47 0.8 1.4 1018.7 0.0000 0.0000
20:10 1.5 -10.7 36 41 1.1 2.2 1018.6 0.0000 0.0000
20:20 1.5 -10 38 50 0.8 1.4 1018.6 0.0000 0.0000
20:31 1.6 -10 38 55 0.8 1.9 1018.6 0.0000 0.0000
20:41 1.5 -10 38 49 0.8 1.9 1018.6 0.0000 0.0000
20:50 1.5 -10 38 45 1.1 2.2 1018.6 0.0000 0.0000
21:01 1.5 -10.7 36 32 0.8 2.2 1018.6 0.0000 0.0000
21:11 1.7 -11.1 34 135 0.3 1.9 1018.6 0.0000 0.0000
21:21 1.8 -12.1 31 247 0.8 1.4 1018.6 0.0000 0.0000
21:31 1.8 -11.1 34 23 0.3 1.1 1018.6 0.0000 0.0000
21:41 1.9 -10.6 35 53 0.8 1.1 1018.6 0.0000 0.0000
21:51 1.6 -11.2 34 45 0.8 1.9 1018.6 0.0000 0.0000
22:01 1.5 -11.3 34 45 1.1 2.2 1018.5 0.0000 0.0000
22:12 1.5 -10.7 36 45 0.8 2.2 1018.5 0.0000 0.0000
22:22 1.5 -10.3 37 46 1.1 1.9 1018.5 0.0000 0.0000
22:31 1.4 -10.4 37 39 1.1 1.9 1018.5 0.0000 0.0000
22:41 1.5 -11.3 34 29 1.4 2.2 1018.5 0.0000 0.0000
22:52 1.6 -10.9 35 32 1.4 2.5 1018.4 0.0000 0.0000
23:02 1.6 -10.3 37 46 1.1 1.9 1018.4 0.0000 0.0000
23:12 1.5 -10.7 36 45 0.8 1.9 1018.4 0.0000 0.0000
23:22 1.4 -11 35 47 0.8 1.9 1018.2 0.0000 0.0000
23:32 1.4 -11 35 23 0.3 1.1 1018.2 0.0000 0.0000
23:42 1.3 -11.1 35 23 1.1 1.9 1018.2 0.0000 0.0000
23:52 1.4 -11.4 34 38 1.1 2.5 1018.2 0.0000 0.0000

DAY STATISTIC

2019-02-18
TEMPERATURE
AVERAGE
5.2
HIGH
12.3
14:47
LOW
0.5
02:21
PRESSURE
AVERAGE
1019.3
HIGH
1020.4
01:51
LOW
1018.2
16:59
DEWPOINT
AVERAGE
-9.5
HIGH
-5.4
02:11
LOW
-13.1
06:33
HUMIDITY
AVERAGE
33
HIGH
61
02:11
LOW
16
14:17
WIND SPEED
AVERAGE
1.7
HIGH
4.4
03:12
WIND GUST
AVERAGE
3.6
HIGH
8.9
03:12
WIND DIRECTION
PREVAILING
N
30.5%
N
30.5
NE
26.2
E
1.4
SE
0.7
S
0.0
SW
1.4
W
17.7
NW
21.3
PRECIPITATION
RAIN HOUR
0.0
RAIN DAY
0.0
TEMPERATURE (°C)
LOW
0.5
HIGH
12.3
AVERAGE
5.2
PRESSURE (hpa)
LOW
1018.2
HIGH
1020.4
AVERAGE
1019.3
DEVICE